Time;durP1;ratioP1;P1;durP2;ratioP2;P2;SDS_P1;SDS_P2;PMS_P1;PMS_P2;Temp;Humidity;BMP_temperature;BMP_pressure;BME280_temperature;BME280_humidity;BME280_pressure;Samples;Min_cycle;Max_cycle;Signal;HPM_P1;HPM_P2
2024/01/14 00:00:06;;;;;;;7.17;5.17;;;4.40;99.90;;;;;;5013660;28;20191;-69
2024/01/14 00:02:35;;;;;;;7.57;5.67;;;4.40;99.90;;;;;;5013724;28;20317;-68
2024/01/14 00:05:01;;;;;;;7.73;5.23;;;4.40;99.90;;;;;;5017769;28;20205;-67
2024/01/14 00:07:26;;;;;;;9.07;5.73;;;4.40;99.90;;;;;;4999642;28;20183;-68
2024/01/14 00:09:55;;;;;;;7.80;5.50;;;4.40;99.90;;;;;;5027640;28;20241;-66
2024/01/14 00:12:21;;;;;;;6.97;4.83;;;4.40;99.90;;;;;;5012926;28;20197;-68
2024/01/14 00:14:48;;;;;;;7.70;5.07;;;4.40;99.90;;;;;;5018276;28;20196;-68
2024/01/14 00:17:14;;;;;;;7.57;5.10;;;4.40;99.90;;;;;;5018849;28;20260;-68
2024/01/14 00:19:42;;;;;;;7.73;5.40;;;4.40;99.90;;;;;;5017934;28;20205;-66
2024/01/14 00:22:08;;;;;;;8.70;5.80;;;4.40;99.90;;;;;;5018429;28;20236;-68
2024/01/14 00:24:39;;;;;;;8.47;5.60;;;4.40;99.90;;;;;;5017966;28;20414;-66
2024/01/14 00:27:07;;;;;;;7.87;5.77;;;4.40;99.90;;;;;;5017498;28;20189;-66
2024/01/14 00:29:36;;;;;;;9.17;5.83;;;4.30;99.90;;;;;;5012020;28;20237;-67
2024/01/14 00:32:04;;;;;;;8.77;5.43;;;4.30;99.90;;;;;;5009999;28;20206;-67
2024/01/14 00:34:30;;;;;;;9.13;5.77;;;4.30;99.90;;;;;;5018590;28;20170;-68
2024/01/14 00:36:58;;;;;;;7.97;5.80;;;4.30;99.90;;;;;;5017036;28;20236;-68
2024/01/14 00:39:25;;;;;;;7.80;5.40;;;4.30;99.90;;;;;;5016991;28;20215;-68
2024/01/14 00:41:52;;;;;;;7.23;5.40;;;4.30;99.90;;;;;;5009625;28;20203;-68
2024/01/14 00:44:18;;;;;;;7.40;5.27;;;4.30;99.90;;;;;;5004135;28;20182;-65
2024/01/14 00:46:46;;;;;;;8.63;6.10;;;4.30;99.90;;;;;;5020100;28;20195;-68
2024/01/14 00:49:11;;;;;;;8.27;5.47;;;4.30;99.90;;;;;;5018210;28;20193;-68
2024/01/14 00:51:37;;;;;;;7.90;5.80;;;4.30;99.90;;;;;;5018122;28;20182;-68
2024/01/14 00:54:03;;;;;;;8.43;5.80;;;4.30;99.90;;;;;;5017962;28;20173;-68
2024/01/14 00:56:28;;;;;;;8.47;5.67;;;4.30;99.90;;;;;;5014768;28;20273;-67
2024/01/14 00:58:56;;;;;;;9.07;6.07;;;4.30;99.90;;;;;;5013927;28;20217;-69
2024/01/14 01:01:24;;;;;;;8.70;5.87;;;4.30;99.90;;;;;;5003817;28;20229;-68
2024/01/14 01:03:50;;;;;;;9.73;6.03;;;4.30;99.90;;;;;;5014775;28;20273;-69
2024/01/14 01:06:15;;;;;;;9.43;5.50;;;4.30;99.90;;;;;;5016464;28;20281;-69
2024/01/14 01:08:43;;;;;;;7.43;5.50;;;4.30;99.90;;;;;;5018073;28;20166;-68
2024/01/14 01:11:17;;;;;;;7.97;5.63;;;4.30;99.90;;;;;;5018717;28;20224;-68
2024/01/14 01:13:42;;;;;;;7.27;5.30;;;4.30;99.90;;;;;;5019466;28;20198;-67
2024/01/14 01:16:08;;;;;;;7.87;5.67;;;4.30;99.90;;;;;;5012756;28;20265;-68
2024/01/14 01:18:39;;;;;;;8.57;5.63;;;4.30;99.90;;;;;;5013584;28;20259;-68
2024/01/14 01:21:06;;;;;;;7.23;5.20;;;4.30;99.90;;;;;;5016541;28;20178;-69
2024/01/14 01:23:31;;;;;;;8.33;5.87;;;4.30;99.90;;;;;;5017494;28;20184;-68
2024/01/14 01:25:57;;;;;;;8.90;5.53;;;4.30;99.90;;;;;;5016818;28;20201;-69
2024/01/14 01:28:23;;;;;;;8.57;6.30;;;4.30;99.90;;;;;;5013827;28;20273;-69
2024/01/14 01:30:48;;;;;;;7.93;5.53;;;4.30;99.90;;;;;;5008814;28;20201;-69
2024/01/14 01:33:16;;;;;;;8.50;5.80;;;4.30;99.90;;;;;;5003215;28;20325;-66
2024/01/14 01:35:46;;;;;;;7.13;5.13;;;4.30;99.90;;;;;;5002482;28;20182;-69
2024/01/14 01:38:16;;;;;;;8.73;5.30;;;4.30;99.90;;;;;;5012602;28;20209;-64
2024/01/14 01:40:46;;;;;;;7.33;5.10;;;4.30;99.90;;;;;;5012553;28;20198;-63
2024/01/14 01:43:13;;;;;;;8.23;5.60;;;4.30;99.90;;;;;;5002167;28;20190;-64
2024/01/14 01:45:39;;;;;;;6.90;5.23;;;4.30;99.90;;;;;;5016477;28;20174;-64
2024/01/14 01:48:07;;;;;;;7.90;5.13;;;4.30;99.90;;;;;;5015106;28;20258;-64
2024/01/14 01:50:37;;;;;;;8.03;5.23;;;4.30;99.90;;;;;;5017528;28;20184;-64
2024/01/14 01:53:03;;;;;;;7.30;5.07;;;4.30;99.90;;;;;;5014648;28;20275;-65
2024/01/14 01:55:29;;;;;;;7.03;5.13;;;4.30;99.90;;;;;;5015669;28;20174;-65
2024/01/14 01:57:58;;;;;;;7.43;4.93;;;4.40;99.90;;;;;;5016977;28;20174;-65
2024/01/14 02:00:26;;;;;;;7.57;4.73;;;4.40;99.90;;;;;;5016727;28;20209;-65
2024/01/14 02:02:52;;;;;;;6.60;4.67;;;4.40;99.90;;;;;;5016525;28;20178;-64
2024/01/14 02:05:19;;;;;;;7.10;4.97;;;4.40;99.90;;;;;;5031403;28;20184;-64
2024/01/14 02:07:47;;;;;;;6.47;4.67;;;4.40;99.90;;;;;;5017719;28;20182;-64
2024/01/14 02:10:16;;;;;;;7.43;5.17;;;4.40;99.90;;;;;;5021316;28;20174;-65
2024/01/14 02:12:42;;;;;;;7.53;4.97;;;4.40;99.90;;;;;;5019478;28;20205;-65
2024/01/14 02:15:10;;;;;;;6.67;4.60;;;4.40;99.90;;;;;;5020732;28;20193;-64
2024/01/14 02:17:38;;;;;;;7.13;4.70;;;4.40;99.90;;;;;;5019548;28;20279;-64
2024/01/14 02:20:09;;;;;;;6.20;4.47;;;4.30;99.90;;;;;;5018927;28;20213;-63
2024/01/14 02:22:40;;;;;;;6.97;4.60;;;4.30;99.90;;;;;;5016429;28;20436;-65
2024/01/14 02:25:10;;;;;;;5.80;4.23;;;4.30;99.90;;;;;;5015400;28;20185;-65
2024/01/14 02:27:35;;;;;;;6.27;4.20;;;4.30;99.90;;;;;;5017721;28;20454;-64
2024/01/14 02:30:03;;;;;;;6.17;4.33;;;4.30;99.90;;;;;;5017164;28;20263;-63
2024/01/14 02:32:30;;;;;;;6.40;4.37;;;4.30;99.90;;;;;;5014365;28;20209;-65
2024/01/14 02:34:56;;;;;;;7.80;5.30;;;4.20;99.90;;;;;;5001125;28;20210;-65
2024/01/14 02:37:22;;;;;;;7.10;5.03;;;4.20;99.90;;;;;;5013263;28;20208;-65
2024/01/14 02:39:47;;;;;;;6.77;4.70;;;4.20;99.90;;;;;;5015545;28;20256;-64
2024/01/14 02:42:13;;;;;;;7.53;5.17;;;4.10;99.90;;;;;;5018762;28;20181;-65
2024/01/14 02:44:41;;;;;;;7.53;5.30;;;4.10;99.90;;;;;;5023921;28;20174;-64
2024/01/14 02:47:06;;;;;;;7.30;5.00;;;4.10;99.90;;;;;;5019401;28;20197;-64
2024/01/14 02:49:32;;;;;;;6.87;5.13;;;4.10;99.90;;;;;;5020390;28;20257;-65
2024/01/14 02:52:00;;;;;;;7.20;5.03;;;4.10;99.90;;;;;;5007930;28;20216;-65
2024/01/14 02:54:26;;;;;;;8.03;5.40;;;4.00;99.90;;;;;;5019283;28;20273;-64
2024/01/14 02:56:51;;;;;;;6.73;4.60;;;4.00;99.90;;;;;;5019320;28;20266;-64
2024/01/14 02:59:19;;;;;;;6.70;4.57;;;4.00;99.90;;;;;;5010506;28;20245;-64
2024/01/14 03:01:46;;;;;;;7.13;4.40;;;4.00;99.90;;;;;;5019129;28;20166;-63
2024/01/14 03:04:12;;;;;;;5.67;4.03;;;4.00;99.90;;;;;;5020192;28;20244;-64
2024/01/14 03:06:37;;;;;;;5.27;3.40;;;4.00;99.90;;;;;;5015421;28;20202;-65
2024/01/14 03:09:06;;;;;;;5.23;3.63;;;4.00;99.90;;;;;;5019244;28;20197;-65
2024/01/14 03:11:32;;;;;;;4.80;3.53;;;4.10;99.90;;;;;;5018724;28;20189;-64
2024/01/14 03:13:58;;;;;;;5.07;3.40;;;4.10;99.90;;;;;;5019411;28;20211;-64
2024/01/14 03:16:24;;;;;;;5.67;3.77;;;4.10;99.90;;;;;;5019205;28;20178;-64
2024/01/14 03:18:51;;;;;;;4.63;3.47;;;4.10;99.90;;;;;;5018192;28;20188;-64
2024/01/14 03:21:20;;;;;;;5.80;4.03;;;4.10;99.90;;;;;;5020591;28;20170;-65
2024/01/14 03:23:49;;;;;;;5.33;3.77;;;4.20;99.90;;;;;;5013468;28;20171;-64
2024/01/14 03:26:14;;;;;;;6.30;4.00;;;4.20;99.90;;;;;;5019542;28;20438;-64
2024/01/14 03:28:40;;;;;;;5.67;3.80;;;4.20;99.90;;;;;;5036478;28;20248;-70
2024/01/14 03:31:08;;;;;;;5.20;3.30;;;4.20;99.90;;;;;;5023984;28;20346;-64
2024/01/14 03:33:37;;;;;;;6.30;4.17;;;4.20;99.90;;;;;;5000302;28;20182;-65
2024/01/14 03:36:03;;;;;;;5.40;3.23;;;4.30;99.90;;;;;;5005393;28;20198;-65
2024/01/14 03:38:29;;;;;;;3.63;2.80;;;4.30;99.90;;;;;;5018913;28;20189;-69
2024/01/14 03:40:54;;;;;;;5.13;3.50;;;4.30;99.90;;;;;;5010785;28;20190;-65
2024/01/14 03:43:20;;;;;;;5.17;3.73;;;4.30;99.90;;;;;;5018238;28;20171;-65
2024/01/14 03:45:45;;;;;;;5.47;3.63;;;4.30;99.90;;;;;;5018322;28;20174;-66
2024/01/14 03:48:11;;;;;;;4.83;3.37;;;4.30;99.90;;;;;;5007858;28;20175;-65
2024/01/14 03:50:37;;;;;;;4.07;3.10;;;4.30;99.90;;;;;;5012884;28;20187;-65
2024/01/14 03:53:05;;;;;;;4.10;3.17;;;4.30;99.90;;;;;;5019059;28;20194;-65
2024/01/14 03:55:30;;;;;;;4.53;3.13;;;4.30;99.90;;;;;;5002452;28;20190;-64
2024/01/14 03:57:58;;;;;;;3.87;2.60;;;4.30;99.90;;;;;;5017594;28;20203;-64
2024/01/14 04:00:23;;;;;;;3.17;2.43;;;4.30;99.90;;;;;;5018729;28;20206;-62
2024/01/14 04:02:49;;;;;;;3.87;2.60;;;4.30;99.90;;;;;;5003602;28;20178;-65
2024/01/14 04:05:17;;;;;;;3.40;2.47;;;4.40;99.90;;;;;;5014778;28;20178;-65
2024/01/14 04:07:45;;;;;;;3.63;2.50;;;4.40;99.90;;;;;;5018901;28;20174;-65
2024/01/14 04:10:12;;;;;;;4.07;2.83;;;4.40;99.90;;;;;;5018353;28;20174;-65
2024/01/14 04:12:42;;;;;;;4.10;2.90;;;4.40;99.90;;;;;;5009050;28;20224;-65
2024/01/14 04:15:11;;;;;;;3.20;2.50;;;4.40;99.90;;;;;;5000078;28;20190;-64
2024/01/14 04:17:39;;;;;;;3.57;2.50;;;4.50;99.90;;;;;;5008133;28;20194;-64
2024/01/14 04:20:05;;;;;;;4.70;2.90;;;4.50;99.90;;;;;;5017548;28;20202;-64
2024/01/14 04:22:31;;;;;;;3.00;2.30;;;4.50;99.90;;;;;;5013587;28;20186;-64
2024/01/14 04:24:56;;;;;;;3.90;2.50;;;4.50;99.90;;;;;;5018146;28;20247;-64
2024/01/14 04:27:22;;;;;;;3.23;2.43;;;4.50;99.90;;;;;;5021599;28;20185;-64
2024/01/14 04:29:48;;;;;;;3.40;2.43;;;4.50;99.90;;;;;;5025031;28;20182;-64
2024/01/14 04:32:13;;;;;;;3.10;2.30;;;4.50;99.90;;;;;;5017740;28;20244;-64
2024/01/14 04:34:39;;;;;;;3.40;2.50;;;4.50;99.90;;;;;;5017969;28;20239;-64
2024/01/14 04:37:04;;;;;;;3.47;2.43;;;4.50;99.90;;;;;;5016353;28;20189;-64
2024/01/14 04:39:32;;;;;;;3.50;2.40;;;4.50;99.90;;;;;;5018060;28;20209;-64
2024/01/14 04:41:58;;;;;;;3.33;2.40;;;4.60;99.90;;;;;;5015288;28;20286;-65
2024/01/14 04:44:23;;;;;;;3.07;2.57;;;4.50;99.90;;;;;;5017872;28;20226;-64
2024/01/14 04:46:49;;;;;;;2.90;2.10;;;4.50;99.90;;;;;;5031460;28;20264;-64
2024/01/14 04:49:15;;;;;;;3.73;2.63;;;4.50;99.90;;;;;;5017117;28;20189;-64
2024/01/14 04:51:45;;;;;;;3.00;2.43;;;4.50;99.90;;;;;;5017237;28;20284;-64
2024/01/14 04:54:11;;;;;;;3.27;2.70;;;4.50;99.90;;;;;;5016884;28;20177;-64
2024/01/14 04:56:38;;;;;;;3.20;2.40;;;4.50;99.90;;;;;;5034550;28;20189;-64
2024/01/14 04:59:04;;;;;;;3.20;2.40;;;4.40;99.90;;;;;;5016403;28;20198;-63
2024/01/14 05:01:30;;;;;;;3.63;2.57;;;4.40;99.90;;;;;;5017745;28;20173;-65
2024/01/14 05:03:56;;;;;;;3.13;2.20;;;4.40;99.90;;;;;;5015793;28;20232;-65
2024/01/14 05:06:24;;;;;;;2.87;2.27;;;4.40;99.90;;;;;;5016884;28;20289;-65
2024/01/14 05:08:55;;;;;;;2.90;2.30;;;4.40;99.90;;;;;;5017925;28;20165;-65
2024/01/14 05:11:21;;;;;;;2.60;2.10;;;4.40;99.90;;;;;;5016682;28;20265;-64
2024/01/14 05:13:47;;;;;;;3.03;2.50;;;4.40;99.90;;;;;;5017090;28;20169;-64
2024/01/14 05:16:13;;;;;;;3.30;2.27;;;4.40;99.90;;;;;;5017357;28;20170;-65
2024/01/14 05:18:41;;;;;;;3.23;2.33;;;4.40;99.90;;;;;;5016664;28;20220;-64
2024/01/14 05:21:16;;;;;;;2.90;2.27;;;4.40;99.90;;;;;;5006730;28;20222;-65
2024/01/14 05:23:42;;;;;;;2.90;2.10;;;4.50;99.90;;;;;;5017097;28;20180;-65
2024/01/14 05:26:09;;;;;;;3.03;2.37;;;4.60;99.90;;;;;;5017150;28;20347;-65
2024/01/14 05:28:38;;;;;;;2.37;1.87;;;4.50;99.90;;;;;;5008134;28;20186;-64
2024/01/14 05:31:03;;;;;;;3.20;2.30;;;4.50;99.90;;;;;;5000273;28;20198;-65
2024/01/14 05:33:31;;;;;;;3.20;2.23;;;4.50;99.90;;;;;;5000629;28;20184;-66
2024/01/14 05:36:01;;;;;;;3.07;2.37;;;4.60;99.90;;;;;;5017640;28;20177;-65
2024/01/14 05:38:26;;;;;;;3.03;2.40;;;4.50;99.90;;;;;;5001775;28;20206;-64
2024/01/14 05:40:54;;;;;;;2.93;2.37;;;4.60;99.90;;;;;;5015863;28;20190;-64
2024/01/14 05:43:22;;;;;;;2.90;2.07;;;4.50;99.90;;;;;;5021984;28;20198;-64
2024/01/14 05:45:47;;;;;;;3.37;2.30;;;4.50;99.90;;;;;;5014807;28;20201;-64
2024/01/14 05:48:15;;;;;;;2.80;2.40;;;4.50;99.90;;;;;;5016930;28;20259;-65
2024/01/14 05:50:41;;;;;;;2.53;1.90;;;4.50;99.90;;;;;;5023933;28;20205;-65
2024/01/14 05:53:07;;;;;;;2.53;1.90;;;4.50;99.90;;;;;;5023301;28;20208;-64
2024/01/14 05:55:32;;;;;;;3.33;2.30;;;4.50;99.90;;;;;;5024386;28;20186;-65
2024/01/14 05:58:00;;;;;;;3.20;1.93;;;4.50;99.90;;;;;;5023771;28;20272;-65
2024/01/14 06:00:26;;;;;;;2.90;2.10;;;4.50;99.90;;;;;;5026223;28;20193;-66
2024/01/14 06:02:51;;;;;;;2.30;1.90;;;4.50;99.90;;;;;;5011972;28;20206;-67
2024/01/14 06:05:17;;;;;;;2.60;1.90;;;4.50;99.90;;;;;;5022349;28;20198;-65
2024/01/14 06:07:50;;;;;;;3.17;2.00;;;4.50;99.90;;;;;;5023730;28;20186;-65
2024/01/14 06:10:18;;;;;;;2.60;1.80;;;4.40;99.90;;;;;;5024334;28;20181;-65
2024/01/14 06:12:43;;;;;;;2.23;1.53;;;4.50;99.90;;;;;;5023516;28;20177;-65
2024/01/14 06:15:11;;;;;;;2.70;2.00;;;4.50;99.90;;;;;;5026754;28;20224;-65
2024/01/14 06:17:37;;;;;;;2.30;2.00;;;4.40;99.90;;;;;;5024010;28;20193;-65
2024/01/14 06:20:03;;;;;;;2.37;1.90;;;4.40;99.90;;;;;;5022690;28;20381;-65
2024/01/14 06:22:31;;;;;;;2.70;1.83;;;4.40;99.90;;;;;;5023365;28;20185;-66
2024/01/14 06:24:57;;;;;;;2.57;1.83;;;4.40;99.90;;;;;;5023816;28;20184;-65
2024/01/14 06:27:23;;;;;;;1.90;1.60;;;4.40;99.90;;;;;;5022421;28;20322;-65
2024/01/14 06:29:48;;;;;;;2.40;1.83;;;4.40;99.90;;;;;;5023026;28;20181;-65
2024/01/14 06:32:14;;;;;;;2.47;1.97;;;4.40;99.90;;;;;;5020378;28;20178;-65
2024/01/14 06:34:41;;;;;;;2.53;1.80;;;4.40;99.90;;;;;;5005418;28;20186;-65
2024/01/14 06:37:07;;;;;;;3.00;1.90;;;4.40;99.90;;;;;;5030306;28;20235;-64
2024/01/14 06:39:37;;;;;;;2.77;2.00;;;4.40;99.90;;;;;;5011043;28;20214;-64
2024/01/14 06:42:03;;;;;;;2.20;1.80;;;4.30;99.90;;;;;;5021080;28;20174;-65
2024/01/14 06:44:28;;;;;;;2.30;1.80;;;4.30;99.90;;;;;;5023742;28;20232;-65
2024/01/14 06:46:56;;;;;;;2.70;1.90;;;4.30;99.90;;;;;;5009421;28;20174;-64
2024/01/14 06:49:22;;;;;;;2.53;2.00;;;4.30;99.90;;;;;;5017028;28;20193;-64
2024/01/14 06:51:47;;;;;;;2.77;2.07;;;4.30;99.90;;;;;;5003883;28;20210;-65
2024/01/14 06:54:15;;;;;;;3.10;2.03;;;4.40;99.90;;;;;;5032712;28;20265;-65
2024/01/14 06:56:45;;;;;;;2.00;1.67;;;4.30;99.90;;;;;;5018344;28;20178;-65
2024/01/14 06:59:24;;;;;;;2.23;1.67;;;4.20;99.90;;;;;;5024703;28;20212;-64
2024/01/14 07:01:52;;;;;;;2.33;1.90;;;4.20;99.90;;;;;;5018007;28;20251;-65
2024/01/14 07:04:20;;;;;;;3.00;1.87;;;4.20;99.90;;;;;;5019554;28;20263;-65
2024/01/14 07:06:46;;;;;;;2.83;1.93;;;4.10;99.90;;;;;;5021932;28;20182;-64
2024/01/14 07:09:14;;;;;;;3.00;1.67;;;4.10;99.90;;;;;;5014195;28;20186;-64
2024/01/14 07:11:40;;;;;;;2.20;1.90;;;4.10;99.90;;;;;;5010060;28;20190;-65
2024/01/14 07:14:08;;;;;;;2.20;1.97;;;4.10;99.90;;;;;;5037278;28;20189;-64
2024/01/14 07:16:33;;;;;;;2.20;1.53;;;4.20;99.90;;;;;;5017481;28;20206;-65
2024/01/14 07:18:59;;;;;;;2.43;1.80;;;4.10;99.90;;;;;;5018065;28;20250;-65
2024/01/14 07:21:25;;;;;;;2.20;1.70;;;4.10;99.90;;;;;;5019450;28;20174;-63
2024/01/14 07:23:53;;;;;;;2.87;2.00;;;4.10;99.90;;;;;;5019604;28;20229;-65
2024/01/14 07:26:21;;;;;;;2.57;1.90;;;4.20;99.90;;;;;;5020185;28;20182;-65
2024/01/14 07:28:47;;;;;;;2.73;2.10;;;4.30;99.90;;;;;;5018939;28;20289;-65
2024/01/14 07:31:20;;;;;;;3.17;2.37;;;4.20;99.90;;;;;;5019154;28;20201;-65
2024/01/14 07:33:48;;;;;;;2.90;2.10;;;4.20;99.90;;;;;;5019942;28;20177;-64
2024/01/14 07:36:16;;;;;;;3.03;2.03;;;4.20;99.90;;;;;;5018961;28;20240;-64
2024/01/14 07:38:42;;;;;;;2.90;2.13;;;4.30;99.90;;;;;;5018204;28;20236;-64
2024/01/14 07:41:15;;;;;;;2.90;2.10;;;4.30;99.90;;;;;;5019160;28;20206;-64
2024/01/14 07:43:41;;;;;;;3.37;2.23;;;4.30;99.90;;;;;;5018955;28;20197;-65
2024/01/14 07:46:07;;;;;;;3.77;2.50;;;4.30;99.90;;;;;;5019141;28;20182;-65
2024/01/14 07:48:34;;;;;;;3.67;2.73;;;4.30;99.90;;;;;;5018589;28;20202;-65
2024/01/14 07:51:00;;;;;;;3.57;2.53;;;4.30;99.90;;;;;;5019313;28;20245;-65
2024/01/14 07:53:25;;;;;;;4.70;2.30;;;4.30;99.90;;;;;;5019523;28;20184;-64
2024/01/14 07:55:51;;;;;;;3.33;2.40;;;4.30;99.90;;;;;;5018999;28;20189;-64
2024/01/14 07:58:17;;;;;;;3.60;2.60;;;4.30;99.90;;;;;;5015147;28;20190;-63
2024/01/14 08:00:48;;;;;;;3.27;2.47;;;4.30;99.90;;;;;;5014466;28;20222;-65
2024/01/14 08:03:19;;;;;;;4.20;2.97;;;4.30;99.90;;;;;;5017402;28;20261;-64
2024/01/14 08:05:46;;;;;;;3.53;2.40;;;4.30;99.90;;;;;;5016606;28;20206;-64
2024/01/14 08:08:14;;;;;;;3.67;2.33;;;4.20;99.90;;;;;;5017515;28;20178;-65
2024/01/14 08:10:39;;;;;;;3.83;2.53;;;4.20;99.90;;;;;;5017973;28;20189;-65
2024/01/14 08:13:05;;;;;;;3.97;2.33;;;4.20;99.90;;;;;;5018675;28;20198;-63
2024/01/14 08:15:33;;;;;;;3.60;2.40;;;4.30;99.90;;;;;;5014258;28;20186;-64
2024/01/14 08:17:59;;;;;;;3.30;2.40;;;4.20;99.90;;;;;;5018949;28;20198;-64
2024/01/14 08:20:25;;;;;;;2.97;2.33;;;4.20;99.90;;;;;;5003026;28;20206;-65
2024/01/14 08:22:53;;;;;;;3.43;2.53;;;4.30;99.90;;;;;;5018489;28;20184;-65
2024/01/14 08:25:20;;;;;;;3.23;2.33;;;4.20;99.90;;;;;;5017018;28;20263;-64
2024/01/14 08:27:45;;;;;;;3.47;2.63;;;4.30;99.90;;;;;;5018478;28;20189;-64
2024/01/14 08:30:13;;;;;;;4.23;2.93;;;4.30;99.90;;;;;;5018342;28;20182;-64
2024/01/14 08:32:41;;;;;;;3.90;2.70;;;4.20;99.90;;;;;;5012593;28;20186;-64
2024/01/14 08:35:07;;;;;;;4.17;3.03;;;4.20;99.90;;;;;;5015214;28;20182;-64
2024/01/14 08:37:33;;;;;;;4.20;2.90;;;4.20;99.90;;;;;;5034765;28;20294;-64
2024/01/14 08:39:58;;;;;;;4.47;3.00;;;4.20;99.90;;;;;;5018347;28;20264;-64
2024/01/14 08:42:24;;;;;;;4.13;2.70;;;4.20;99.90;;;;;;5018220;28;20184;-65
2024/01/14 08:44:49;;;;;;;3.93;2.83;;;4.20;99.90;;;;;;5003455;28;20205;-65
2024/01/14 08:47:17;;;;;;;3.23;2.50;;;4.20;99.90;;;;;;4998937;28;20201;-64
2024/01/14 08:49:43;;;;;;;5.20;3.20;;;4.20;99.90;;;;;;5010782;28;20193;-63
2024/01/14 08:52:08;;;;;;;3.90;2.80;;;4.20;99.90;;;;;;5016674;28;20189;-62
2024/01/14 08:54:40;;;;;;;3.27;2.40;;;4.30;99.90;;;;;;5014875;28;20388;-64
2024/01/14 08:57:07;;;;;;;3.87;2.67;;;4.20;99.90;;;;;;5012755;28;20217;-65
2024/01/14 08:59:35;;;;;;;3.40;2.43;;;4.30;99.90;;;;;;5016610;28;20206;-64
2024/01/14 09:02:03;;;;;;;3.87;2.70;;;4.30;99.90;;;;;;5017877;28;20188;-64
2024/01/14 09:04:29;;;;;;;3.67;2.80;;;4.30;99.90;;;;;;5021018;28;20265;-64
2024/01/14 09:06:57;;;;;;;4.27;2.43;;;4.30;99.90;;;;;;5012176;28;20203;-64
2024/01/14 09:09:23;;;;;;;3.83;2.57;;;4.30;99.90;;;;;;5014102;28;20233;-64
2024/01/14 09:11:48;;;;;;;3.63;2.73;;;4.30;99.90;;;;;;5017546;28;20269;-64
2024/01/14 09:14:14;;;;;;;3.10;2.23;;;4.30;99.90;;;;;;5018306;28;20174;-65
2024/01/14 09:16:39;;;;;;;3.17;2.33;;;4.40;99.90;;;;;;5014962;28;20181;-64
2024/01/14 09:19:07;;;;;;;4.07;2.90;;;4.40;99.90;;;;;;5015138;28;20267;-65
2024/01/14 09:21:35;;;;;;;3.90;2.77;;;4.40;99.90;;;;;;5021592;28;20241;-63
2024/01/14 09:24:01;;;;;;;4.00;2.30;;;4.40;99.90;;;;;;5016799;28;20185;-64
2024/01/14 09:26:31;;;;;;;4.37;2.87;;;4.30;99.90;;;;;;5016452;28;20174;-64
2024/01/14 09:28:57;;;;;;;3.67;2.77;;;4.30;99.90;;;;;;5014726;28;20174;-65
2024/01/14 09:31:22;;;;;;;3.80;2.87;;;4.30;99.90;;;;;;5017898;28;20188;-64
2024/01/14 09:33:48;;;;;;;4.70;3.23;;;4.30;99.90;;;;;;5020695;28;20207;-64
2024/01/14 09:36:19;;;;;;;4.40;3.10;;;4.40;99.90;;;;;;5023249;28;20181;-66
2024/01/14 09:38:45;;;;;;;4.13;2.73;;;4.40;99.90;;;;;;5015417;28;20194;-65
2024/01/14 09:41:51;;;;;;;3.77;2.80;;;4.30;99.90;;;;;;5015591;28;20206;-65
2024/01/14 09:44:22;;;;;;;4.10;2.67;;;4.20;99.90;;;;;;5012390;28;20186;-64
2024/01/14 09:46:51;;;;;;;3.53;2.50;;;4.20;99.90;;;;;;5017348;28;20285;-68
2024/01/14 09:49:22;;;;;;;4.23;2.77;;;4.10;99.90;;;;;;5015517;28;20189;-68
2024/01/14 09:51:52;;;;;;;3.73;2.67;;;4.10;99.90;;;;;;5028278;28;20196;-68
2024/01/14 09:54:18;;;;;;;4.33;2.80;;;4.10;99.90;;;;;;5016144;28;20178;-69
2024/01/14 09:56:48;;;;;;;4.10;2.93;;;4.10;99.90;;;;;;5010956;28;20185;-68
2024/01/14 09:59:17;;;;;;;3.87;2.77;;;4.00;99.90;;;;;;5013351;28;20202;-68
2024/01/14 10:01:45;;;;;;;3.70;2.83;;;4.00;99.90;;;;;;5016199;28;20181;-67
2024/01/14 10:04:16;;;;;;;4.20;2.83;;;4.10;99.90;;;;;;5015815;28;20260;-69
2024/01/14 10:06:43;;;;;;;4.03;2.53;;;4.10;99.90;;;;;;5016776;28;20276;-68
2024/01/14 10:09:11;;;;;;;3.97;2.87;;;4.10;99.90;;;;;;5010978;28;20174;-69
2024/01/14 10:11:39;;;;;;;4.33;2.80;;;4.10;99.90;;;;;;5021410;28;20262;-67
2024/01/14 10:14:09;;;;;;;5.30;2.93;;;4.10;99.90;;;;;;5016699;28;20214;-67
2024/01/14 10:16:40;;;;;;;3.50;2.80;;;4.20;99.90;;;;;;5007257;28;20273;-68
2024/01/14 10:19:06;;;;;;;4.33;3.10;;;4.20;99.90;;;;;;5016398;28;20202;-68
2024/01/14 10:21:34;;;;;;;4.10;2.97;;;4.20;99.90;;;;;;5015552;28;20170;-69
2024/01/14 10:24:01;;;;;;;3.90;3.03;;;4.20;99.90;;;;;;5015588;28;20184;-70
2024/01/14 10:26:27;;;;;;;4.53;3.30;;;4.30;99.90;;;;;;5013865;28;20209;-70
2024/01/14 10:28:53;;;;;;;3.70;2.77;;;4.30;99.90;;;;;;5018692;28;20174;-69
2024/01/14 10:31:18;;;;;;;4.27;3.13;;;4.30;99.90;;;;;;5017877;28;20201;-69
2024/01/14 10:33:47;;;;;;;4.60;3.07;;;4.30;99.90;;;;;;5016113;28;20241;-71
2024/01/14 10:36:14;;;;;;;4.30;2.87;;;4.30;99.90;;;;;;5001391;28;20241;-70
2024/01/14 10:38:43;;;;;;;4.30;3.00;;;4.30;99.90;;;;;;5014044;28;20202;-69
2024/01/14 10:41:11;;;;;;;5.03;3.47;;;4.40;99.90;;;;;;5019482;28;20288;-68
2024/01/14 10:43:37;;;;;;;3.97;2.90;;;4.40;99.90;;;;;;5019106;28;20240;-75
2024/01/14 10:46:03;;;;;;;5.63;3.60;;;4.40;99.90;;;;;;5019991;28;20201;-65
2024/01/14 10:48:32;;;;;;;5.37;3.57;;;4.40;99.90;;;;;;5031882;28;20193;-66
2024/01/14 10:51:01;;;;;;;4.23;3.10;;;4.50;99.90;;;;;;5008566;28;20239;-67
2024/01/14 10:53:36;;;;;;;4.70;3.33;;;4.50;99.90;;;;;;5018488;28;20171;-67
2024/01/14 10:56:05;;;;;;;4.60;3.30;;;4.50;99.90;;;;;;5017135;28;20170;-68
2024/01/14 10:58:40;;;;;;;4.57;3.13;;;4.50;99.90;;;;;;5019717;28;20208;-67
2024/01/14 11:01:16;;;;;;;4.87;3.27;;;4.50;99.90;;;;;;5017055;28;20193;-68
2024/01/14 11:03:43;;;;;;;4.77;3.23;;;4.50;99.90;;;;;;5013354;28;20299;-68
2024/01/14 11:06:10;;;;;;;4.67;3.30;;;4.50;99.90;;;;;;5019931;28;20198;-68
2024/01/14 11:08:37;;;;;;;4.27;3.10;;;4.50;99.90;;;;;;5019019;28;20204;-68
2024/01/14 11:11:03;;;;;;;4.27;3.00;;;4.50;99.90;;;;;;5019814;28;20174;-68
2024/01/14 11:13:47;;;;;;;3.67;2.57;;;4.50;99.90;;;;;;5018670;28;20209;-67
2024/01/14 11:16:20;;;;;;;4.40;2.80;;;4.50;99.90;;;;;;5020893;28;20344;-66
2024/01/14 11:18:51;;;;;;;3.50;2.53;;;4.50;99.90;;;;;;5016354;28;20243;-66
2024/01/14 11:21:39;;;;;;;4.50;3.03;;;4.60;99.90;;;;;;5027320;28;20223;-67
2024/01/14 11:24:08;;;;;;;3.53;2.63;;;4.60;99.90;;;;;;5015314;28;20175;-63
2024/01/14 11:26:36;;;;;;;3.30;2.43;;;4.70;99.90;;;;;;5009233;28;20179;-67
2024/01/14 11:29:05;;;;;;;3.63;2.80;;;4.80;99.90;;;;;;5001275;28;20189;-67
2024/01/14 11:32:08;;;;;;;4.23;2.97;;;4.80;99.90;;;;;;5013976;28;20296;-67
2024/01/14 11:34:46;;;;;;;2.97;2.27;;;4.90;99.90;;;;;;5016382;28;20180;-66
2024/01/14 11:37:37;;;;;;;3.67;2.50;;;4.90;99.90;;;;;;5007299;28;20173;-66
2024/01/14 11:40:09;;;;;;;3.87;2.53;;;5.00;99.90;;;;;;5003375;28;20194;-66
2024/01/14 11:42:35;;;;;;;3.33;2.37;;;5.10;99.90;;;;;;5018590;28;20178;-67
2024/01/14 11:45:02;;;;;;;3.03;2.60;;;5.20;99.90;;;;;;5019347;28;20204;-74
2024/01/14 11:47:48;;;;;;;4.03;2.73;;;5.30;99.90;;;;;;5018645;28;20178;-74
2024/01/14 11:50:16;;;;;;;3.90;2.30;;;5.40;99.90;;;;;;5008464;28;20268;-76
2024/01/14 11:52:48;;;;;;;2.80;2.17;;;5.30;99.90;;;;;;5017371;28;20454;-74
2024/01/14 11:55:17;;;;;;;3.13;2.10;;;5.40;99.90;;;;;;5012393;28;20175;-71
2024/01/14 11:57:47;;;;;;;3.27;2.50;;;5.40;99.90;;;;;;5018033;28;20174;-67
2024/01/14 12:00:19;;;;;;;3.17;2.30;;;5.40;99.90;;;;;;5018686;28;20213;-67
2024/01/14 12:02:44;;;;;;;2.97;2.33;;;5.40;99.90;;;;;;5018885;28;20177;-67
2024/01/14 12:05:25;;;;;;;3.23;2.43;;;5.40;99.90;;;;;;5017457;28;20193;-67
2024/01/14 12:07:53;;;;;;;3.43;2.53;;;5.40;99.90;;;;;;5019438;28;20178;-67
2024/01/14 12:10:19;;;;;;;4.20;3.07;;;5.40;99.90;;;;;;5022910;28;20196;-67
2024/01/14 12:12:47;;;;;;;3.30;2.50;;;5.30;99.90;;;;;;5020252;28;20202;-67
2024/01/14 12:15:17;;;;;;;3.10;2.33;;;5.30;99.90;;;;;;5016546;28;20260;-67
2024/01/14 12:18:00;;;;;;;4.77;2.83;;;5.30;99.90;;;;;;5016564;28;20198;-66
2024/01/14 12:20:34;;;;;;;3.73;2.70;;;5.20;99.90;;;;;;5017928;28;20280;-67
2024/01/14 12:23:01;;;;;;;3.73;2.60;;;5.20;99.90;;;;;;5018392;28;20190;-66
2024/01/14 12:25:27;;;;;;;4.60;2.57;;;5.20;99.90;;;;;;5017214;28;20204;-67
2024/01/14 12:27:55;;;;;;;3.40;2.40;;;5.20;99.90;;;;;;5035392;28;20253;-69
2024/01/14 12:30:34;;;;;;;3.93;2.90;;;5.20;99.90;;;;;;5017824;28;20265;-66
2024/01/14 12:33:07;;;;;;;4.93;3.30;;;5.20;99.90;;;;;;5033362;28;20186;-65
2024/01/14 12:35:38;;;;;;;5.07;3.63;;;5.20;99.90;;;;;;5015533;28;20187;-66
2024/01/14 12:38:08;;;;;;;4.70;3.47;;;5.10;99.90;;;;;;5018360;28;20174;-65
2024/01/14 12:40:36;;;;;;;9.53;3.97;;;5.20;99.90;;;;;;5017559;28;20393;-67
2024/01/14 12:43:05;;;;;;;4.93;3.50;;;5.10;99.90;;;;;;5017069;28;20170;-67
2024/01/14 12:45:33;;;;;;;4.63;3.30;;;5.10;99.90;;;;;;5018147;28;20186;-67
2024/01/14 12:48:07;;;;;;;4.53;3.43;;;5.10;99.90;;;;;;5010453;28;20206;-67
2024/01/14 12:50:36;;;;;;;4.80;3.73;;;5.10;99.90;;;;;;5016705;28;20178;-66
2024/01/14 12:53:09;;;;;;;4.60;3.30;;;5.20;99.90;;;;;;5035378;28;20185;-65
2024/01/14 12:55:37;;;;;;;4.40;3.40;;;5.10;99.90;;;;;;5011979;28;20178;-67
2024/01/14 12:58:04;;;;;;;5.30;3.57;;;5.10;99.90;;;;;;5017564;28;20261;-68
2024/01/14 13:00:30;;;;;;;4.93;4.00;;;5.20;99.90;;;;;;5017516;28;20197;-67